Time;durP1;ratioP1;P1;durP2;ratioP2;P2;SDS_P1;SDS_P2;PMS_P1;PMS_P2;Temp;Humidity;BMP_temperature;BMP_pressure;BME280_temperature;BME280_humidity;BME280_pressure;Samples;Min_cycle;Max_cycle;Signal;HPM_P1;HPM_P2
2023/03/15 00:01:17;;;;;;;7.55;3.20;;;;;;;1.17;100.00;101125.97;5052058;28;20411;-60
2023/03/15 00:03:43;;;;;;;7.55;3.30;;;;;;;1.15;100.00;101128.41;5052062;28;20383;-60
2023/03/15 00:06:09;;;;;;;7.80;3.67;;;;;;;1.05;100.00;101120.88;5051964;28;20049;-60
2023/03/15 00:08:34;;;;;;;6.05;3.10;;;;;;;1.04;100.00;101129.28;5052521;28;20519;-61
2023/03/15 00:11:00;;;;;;;6.45;3.30;;;;;;;1.02;100.00;101111.41;5051935;28;20025;-60
2023/03/15 00:13:26;;;;;;;8.80;3.47;;;;;;;0.99;100.00;101111.16;5052537;28;20044;-61
2023/03/15 00:15:56;;;;;;;7.70;4.18;;;;;;;1.00;100.00;101115.47;5052729;28;20049;-60
2023/03/15 00:18:21;;;;;;;8.73;3.92;;;;;;;1.00;100.00;101109.53;5052227;28;20116;-60
2023/03/15 00:20:47;;;;;;;8.75;4.07;;;;;;;0.97;100.00;101113.59;5052135;28;20112;-60
2023/03/15 00:23:13;;;;;;;10.70;4.20;;;;;;;1.00;100.00;101107.00;5052226;28;20021;-61
2023/03/15 00:25:39;;;;;;;8.85;4.47;;;;;;;0.96;100.00;101110.94;5052120;28;20021;-60
2023/03/15 00:28:04;;;;;;;9.43;4.88;;;;;;;0.96;100.00;101110.94;5052006;28;20024;-60
2023/03/15 00:30:30;;;;;;;8.95;5.30;;;;;;;0.91;100.00;101115.69;5052547;28;20091;-60
2023/03/15 00:32:55;;;;;;;9.52;6.20;;;;;;;0.89;100.00;101119.78;5051679;28;20032;-60
2023/03/15 00:35:22;;;;;;;10.15;6.70;;;;;;;0.88;100.00;101114.56;5052135;28;20032;-60
2023/03/15 00:37:48;;;;;;;13.40;6.70;;;;;;;0.85;100.00;101112.69;5051933;28;20083;-60
2023/03/15 00:40:14;;;;;;;9.27;7.47;;;;;;;0.83;100.00;101119.31;5052130;28;20032;-60
2023/03/15 00:42:39;;;;;;;11.60;7.22;;;;;;;0.85;100.00;101120.31;5052264;28;20017;-60
2023/03/15 00:45:05;;;;;;;11.32;7.20;;;;;;;0.84;100.00;101112.59;5051521;28;20025;-60
2023/03/15 00:47:30;;;;;;;13.70;8.32;;;;;;;0.87;100.00;101106.09;5052068;28;20021;-60
2023/03/15 00:49:56;;;;;;;14.77;7.50;;;;;;;0.86;100.00;101108.50;5051929;28;20043;-60
2023/03/15 00:52:21;;;;;;;12.40;7.03;;;;;;;0.90;100.00;101111.38;5051546;28;20036;-60
2023/03/15 00:54:54;;;;;;;14.30;5.82;;;;;;;0.91;100.00;101114.81;5051964;28;20112;-60
2023/03/15 00:57:20;;;;;;;13.40;5.90;;;;;;;0.94;100.00;101118.47;5052305;28;20024;-60
2023/03/15 00:59:45;;;;;;;10.45;5.63;;;;;;;0.93;100.00;101124.31;5051731;28;20025;-60
2023/03/15 01:02:11;;;;;;;11.68;5.78;;;;;;;0.97;100.00;101123.75;5051516;28;20102;-60
2023/03/15 01:04:37;;;;;;;9.98;5.55;;;;;;;1.01;100.00;101126.50;5051932;28;20372;-60
2023/03/15 01:07:03;;;;;;;10.35;5.43;;;;;;;1.04;100.00;101124.19;5050994;28;20496;-60
2023/03/15 01:09:30;;;;;;;10.32;6.05;;;;;;;1.07;100.00;101130.38;5051961;28;20025;-60
2023/03/15 01:11:56;;;;;;;11.80;5.90;;;;;;;1.10;100.00;101133.13;5051827;28;20025;-60
2023/03/15 01:14:21;;;;;;;11.15;5.85;;;;;;;1.13;100.00;101135.00;5055296;28;20496;-60
2023/03/15 01:16:46;;;;;;;10.02;5.25;;;;;;;1.14;100.00;101132.56;5055401;28;20472;-61
2023/03/15 01:19:12;;;;;;;11.45;6.13;;;;;;;1.16;100.00;101135.22;5055273;28;20461;-60
2023/03/15 01:21:38;;;;;;;16.88;6.22;;;;;;;1.24;100.00;101139.22;5054821;28;20388;-60
2023/03/15 01:24:03;;;;;;;15.40;5.80;;;;;;;1.30;100.00;101141.28;5055051;28;20079;-61
2023/03/15 01:26:28;;;;;;;12.05;6.05;;;;;;;1.26;100.00;101141.84;5055514;28;20033;-60
2023/03/15 01:28:54;;;;;;;14.70;6.35;;;;;;;1.27;100.00;101149.56;5054661;28;20013;-60
2023/03/15 01:31:23;;;;;;;15.77;7.15;;;;;;;1.24;100.00;101138.31;5055088;28;20113;-60
2023/03/15 01:33:48;;;;;;;17.85;6.65;;;;;;;1.25;100.00;101146.06;5055213;28;20021;-60
2023/03/15 01:36:14;;;;;;;18.42;8.55;;;;;;;1.26;100.00;101152.88;5054224;28;20040;-60
2023/03/15 01:38:40;;;;;;;15.80;8.55;;;;;;;1.29;100.00;101149.69;5055093;28;20025;-60
2023/03/15 01:41:05;;;;;;;23.05;9.85;;;;;;;1.33;100.00;101160.94;5054819;28;20036;-60
2023/03/15 01:43:32;;;;;;;18.67;9.73;;;;;;;1.35;100.00;101156.88;5054696;28;20380;-60
2023/03/15 01:46:00;;;;;;;20.00;12.02;;;;;;;1.39;100.00;101161.38;5054680;28;20468;-60
2023/03/15 01:49:05;;;;;;;32.88;13.35;;;;;;;1.43;100.00;101160.84;5054351;28;20029;-60
2023/03/15 01:51:46;;;;;;;21.33;14.88;;;;;;;1.42;100.00;101167.59;5054744;28;20033;-60
2023/03/15 01:54:15;;;;;;;25.80;16.55;;;;;;;1.44;100.00;101172.75;5054662;28;20546;-60
2023/03/15 01:56:45;;;;;;;20.27;13.98;;;;;;;1.39;100.00;101185.13;5054253;28;20476;-60
2023/03/15 01:59:18;;;;;;;8.38;6.63;;;;;;;1.13;100.00;101185.78;5054239;28;20539;-60
2023/03/15 02:01:44;;;;;;;8.57;5.60;;;;;;;1.07;100.00;101182.78;5054916;28;20036;-60
2023/03/15 02:04:14;;;;;;;10.65;6.20;;;;;;;0.97;100.00;101194.81;5054125;28;20025;-60
2023/03/15 02:06:45;;;;;;;9.05;6.28;;;;;;;0.92;100.00;101193.59;5054271;28;20037;-60
2023/03/15 02:09:13;;;;;;;9.77;6.55;;;;;;;0.89;100.00;101195.91;5054399;28;20035;-60
2023/03/15 02:11:40;;;;;;;10.00;7.35;;;;;;;0.81;100.00;101191.91;5054015;28;20028;-60
2023/03/15 02:14:07;;;;;;;9.95;7.88;;;;;;;0.76;100.00;101204.25;5054012;28;20361;-60
2023/03/15 02:16:32;;;;;;;11.82;8.13;;;;;;;0.76;100.00;101208.44;5054132;28;20104;-60
2023/03/15 02:18:58;;;;;;;14.27;8.10;;;;;;;0.73;100.00;101205.69;5053987;28;20098;-60
2023/03/15 02:21:35;;;;;;;12.80;8.45;;;;;;;0.74;100.00;101210.00;5054276;28;20358;-60
2023/03/15 02:24:21;;;;;;;15.53;9.37;;;;;;;0.75;100.00;101210.09;5053277;28;20036;-60
2023/03/15 02:26:54;;;;;;;14.02;9.57;;;;;;;0.83;100.00;101205.59;5054373;28;20021;-60
2023/03/15 02:29:22;;;;;;;14.48;9.80;;;;;;;0.85;100.00;101206.56;5054343;28;20021;-60
2023/03/15 02:31:48;;;;;;;16.90;9.90;;;;;;;0.85;100.00;101206.56;5053710;28;20079;-58
2023/03/15 02:34:13;;;;;;;16.00;10.07;;;;;;;0.83;100.00;101210.66;5053762;28;20036;-60
2023/03/15 02:36:38;;;;;;;16.77;10.68;;;;;;;0.86;100.00;101205.81;5054032;28;20028;-61
2023/03/15 02:39:15;;;;;;;15.07;11.63;;;;;;;0.89;100.00;101208.59;5053176;28;20031;-60
2023/03/15 02:41:45;;;;;;;22.23;13.70;;;;;;;0.94;100.00;101194.59;5053597;28;20576;-60
2023/03/15 02:44:15;;;;;;;24.15;14.95;;;;;;;0.92;100.00;101203.72;5053687;28;20044;-60
2023/03/15 02:46:42;;;;;;;23.75;16.63;;;;;;;0.93;100.00;101208.03;5053062;28;20029;-60
2023/03/15 02:49:08;;;;;;;31.90;18.85;;;;;;;0.97;100.00;101197.34;5053416;28;20057;-60
2023/03/15 02:51:34;;;;;;;39.10;25.80;;;;;;;1.01;100.00;101207.72;5053452;28;20104;-59
2023/03/15 02:53:59;;;;;;;38.58;27.58;;;;;;;1.02;100.00;101209.50;5053359;28;20116;-60
2023/03/15 02:56:25;;;;;;;40.10;29.83;;;;;;;1.05;100.00;101219.88;5053701;28;20021;-60
2023/03/15 02:58:50;;;;;;;49.42;34.80;;;;;;;1.07;100.00;101215.78;5053093;28;20021;-60
2023/03/15 03:01:17;;;;;;;50.58;35.55;;;;;;;1.09;100.00;101215.13;5053040;28;20029;-60
2023/03/15 03:03:44;;;;;;;54.65;38.38;;;;;;;1.11;100.00;101220.31;5053492;28;20029;-60
2023/03/15 03:06:11;;;;;;;57.80;37.28;;;;;;;1.14;100.00;101228.19;5052580;28;20102;-61
2023/03/15 03:08:37;;;;;;;54.83;38.75;;;;;;;1.18;100.00;101235.25;5053345;28;20029;-60
2023/03/15 03:11:02;;;;;;;60.33;40.20;;;;;;;1.18;100.00;101235.25;5053191;28;20075;-60
2023/03/15 03:13:28;;;;;;;57.15;39.72;;;;;;;1.19;100.00;101239.56;5052808;28;20112;-60
2023/03/15 03:16:02;;;;;;;55.25;38.00;;;;;;;1.20;100.00;101248.03;5053122;28;20461;-60
2023/03/15 03:18:28;;;;;;;54.30;36.58;;;;;;;1.17;100.00;101255.44;5053190;28;20496;-60
2023/03/15 03:20:55;;;;;;;55.10;38.35;;;;;;;1.14;100.00;101263.72;5052588;28;20035;-60
2023/03/15 03:23:24;;;;;;;53.40;37.90;;;;;;;1.13;100.00;101261.94;5053104;28;20099;-60
2023/03/15 03:25:50;;;;;;;53.38;36.97;;;;;;;1.10;100.00;101266.81;5053243;28;20025;-60
2023/03/15 03:28:15;;;;;;;53.70;37.78;;;;;;;1.08;100.00;101264.13;5052212;28;20024;-60
2023/03/15 03:30:40;;;;;;;46.22;33.83;;;;;;;1.02;100.00;101270.41;5052699;28;20028;-60
2023/03/15 03:33:05;;;;;;;49.25;31.70;;;;;;;0.96;100.00;101274.25;5052723;28;20042;-60
2023/03/15 03:35:31;;;;;;;44.13;30.08;;;;;;;0.90;100.00;101281.41;5052070;28;20468;-60
2023/03/15 03:37:56;;;;;;;37.22;27.02;;;;;;;0.84;100.00;101282.59;5052402;28;20029;-61
2023/03/15 03:40:22;;;;;;;38.17;27.95;;;;;;;0.75;100.00;101283.69;5052921;28;20029;-60
2023/03/15 03:42:47;;;;;;;41.13;26.95;;;;;;;0.68;100.00;101281.44;5052220;28;20103;-60
2023/03/15 03:45:12;;;;;;;41.22;26.40;;;;;;;0.63;100.00;101291.25;5052604;28;20127;-60
2023/03/15 03:47:37;;;;;;;40.00;25.38;;;;;;;0.59;100.00;101294.28;5053008;28;20071;-60
2023/03/15 03:50:03;;;;;;;35.97;25.83;;;;;;;0.52;100.00;101297.13;5051701;28;20048;-60
2023/03/15 03:52:28;;;;;;;43.22;26.23;;;;;;;0.46;100.00;101300.06;5052913;28;20029;-60
2023/03/15 03:54:54;;;;;;;36.97;24.95;;;;;;;0.40;100.00;101302.16;5052008;28;20024;-60
2023/03/15 03:57:19;;;;;;;36.00;26.65;;;;;;;0.36;100.00;101306.84;5052459;28;20029;-60
2023/03/15 03:59:44;;;;;;;35.70;24.77;;;;;;;0.30;100.00;101304.72;5052538;28;20465;-60
2023/03/15 04:02:09;;;;;;;36.17;24.38;;;;;;;0.25;100.00;101308.56;5051917;28;20029;-60
2023/03/15 04:04:35;;;;;;;35.78;24.83;;;;;;;0.19;100.00;101311.47;5052395;28;20376;-60
2023/03/15 04:07:00;;;;;;;35.83;24.67;;;;;;;0.16;100.00;101317.19;5052414;28;20056;-60
2023/03/15 04:09:26;;;;;;;36.80;23.98;;;;;;;0.14;100.00;101317.81;5052134;28;20516;-60
2023/03/15 04:11:51;;;;;;;34.53;23.70;;;;;;;0.12;100.00;101316.84;5052353;28;20029;-60
2023/03/15 04:14:16;;;;;;;36.03;23.85;;;;;;;0.08;100.00;101319.88;5052206;28;20099;-60
2023/03/15 04:16:42;;;;;;;32.47;23.02;;;;;;;0.04;100.00;101328.00;5051872;28;20060;-60
2023/03/15 04:19:08;;;;;;;38.53;25.90;;;;;;;0.03;100.00;101338.88;5051926;28;20029;-60
2023/03/15 04:21:33;;;;;;;35.30;24.33;;;;;;;-0.03;100.00;101342.75;5052424;28;20380;-60
2023/03/15 04:23:59;;;;;;;38.70;24.90;;;;;;;-0.08;100.00;101346.56;5051731;28;20025;-60
2023/03/15 04:26:28;;;;;;;35.88;24.35;;;;;;;-0.13;100.00;101352.00;5052234;28;20025;-60
2023/03/15 04:28:55;;;;;;;36.50;24.67;;;;;;;-0.17;100.00;101350.84;5052098;28;20108;-60
2023/03/15 04:31:25;;;;;;;39.58;24.85;;;;;;;-0.20;100.00;101359.09;5052078;28;20107;-59
2023/03/15 04:33:51;;;;;;;38.17;25.23;;;;;;;-0.22;100.00;101358.09;5052325;28;20032;-60
2023/03/15 04:36:17;;;;;;;37.92;24.67;;;;;;;-0.24;100.00;101367.22;5052132;28;20021;-60
2023/03/15 04:38:45;;;;;;;41.88;26.40;;;;;;;-0.34;100.00;101370.66;5051931;28;20025;-60
2023/03/15 04:41:11;;;;;;;;;;;;;;;-0.23;100.00;101370.66;5052163;28;20021;-60
2023/03/15 04:43:36;;;;;;;42.72;28.13;;;;;;;-0.34;100.00;101370.66;5052284;28;20003;-60
2023/03/15 04:46:01;;;;;;;38.97;27.25;;;;;;;-0.40;100.00;101372.69;5051444;28;20029;-60
2023/03/15 04:48:27;;;;;;;44.80;29.70;;;;;;;-0.38;100.00;101377.88;5055207;28;20051;-60
2023/03/15 04:50:52;;;;;;;45.55;30.08;;;;;;;-0.43;100.00;101380.00;5056180;28;20029;-60
2023/03/15 04:53:17;;;;;;;49.13;31.08;;;;;;;-0.48;100.00;101381.28;5055001;28;20469;-60
2023/03/15 04:55:42;;;;;;;55.45;34.17;;;;;;;-0.49;100.00;101382.06;5056106;28;20074;-60
2023/03/15 04:58:08;;;;;;;51.78;33.00;;;;;;;-0.50;100.00;101381.16;5055024;28;20025;-60
2023/03/15 05:00:33;;;;;;;55.78;34.13;;;;;;;-0.48;100.00;101388.88;5055739;28;20033;-60
2023/03/15 05:02:58;;;;;;;57.47;36.15;;;;;;;-0.51;100.00;101396.22;5055744;28;20035;-60
2023/03/15 05:05:24;;;;;;;54.13;35.42;;;;;;;-0.53;100.00;101397.72;5055190;28;20059;-60
2023/03/15 05:07:50;;;;;;;55.53;36.88;;;;;;;-0.54;100.00;101401.03;5055415;28;20045;-60
2023/03/15 05:10:15;;;;;;;59.95;35.97;;;;;;;-0.47;100.00;101398.25;5055465;28;20487;-60
2023/03/15 05:12:40;;;;;;;60.50;38.17;;;;;;;-0.58;100.00;101404.06;5054906;28;20477;-60
2023/03/15 05:15:06;;;;;;;54.35;36.95;;;;;;;-0.57;100.00;101415.97;5055340;28;20033;-60
2023/03/15 05:17:32;;;;;;;58.45;36.95;;;;;;;-0.60;100.00;101414.06;5055677;28;20091;-60
2023/03/15 05:20:00;;;;;;;54.08;35.33;;;;;;;-0.73;100.00;101412.16;5054732;28;20075;-60
2023/03/15 05:22:26;;;;;;;44.33;30.60;;;;;;;-0.93;100.00;101422.22;5055193;28;20024;-60
2023/03/15 05:24:52;;;;;;;56.35;34.95;;;;;;;-0.88;100.00;101418.44;5055481;28;20021;-60
2023/03/15 05:27:18;;;;;;;58.28;36.45;;;;;;;-0.82;100.00;101415.56;5054565;28;20017;-60
2023/03/15 05:29:44;;;;;;;57.15;37.10;;;;;;;-0.82;100.00;101418.97;5055316;28;20088;-60
2023/03/15 05:32:09;;;;;;;56.65;35.90;;;;;;;-0.84;100.00;101420.47;5055180;28;20465;-60
2023/03/15 05:34:35;;;;;;;58.63;36.90;;;;;;;-0.86;100.00;101424.53;5054885;28;20461;-60
2023/03/15 05:37:00;;;;;;;63.15;39.42;;;;;;;-0.81;100.00;101424.91;5054615;28;20036;-60
2023/03/15 05:39:25;;;;;;;65.47;38.38;;;;;;;-0.79;100.00;101434.41;5055189;28;20021;-60
2023/03/15 05:41:51;;;;;;;66.28;38.67;;;;;;;-0.75;100.00;101431.41;5054381;28;20419;-60
2023/03/15 05:44:16;;;;;;;67.07;36.60;;;;;;;-0.81;100.00;101437.56;5054710;28;20032;-60
2023/03/15 05:46:42;;;;;;;63.88;38.75;;;;;;;-0.79;100.00;101436.06;5055019;28;20029;-60
2023/03/15 05:49:07;;;;;;;64.20;38.92;;;;;;;-0.77;100.00;101443.03;5054078;28;20047;-60
2023/03/15 05:51:33;;;;;;;66.60;37.40;;;;;;;-0.75;100.00;101444.06;5054906;28;20120;-60
2023/03/15 05:53:58;;;;;;;68.32;37.38;;;;;;;-0.73;100.00;101444.19;5054659;28;20021;-59
2023/03/15 05:56:24;;;;;;;63.15;37.67;;;;;;;-0.65;100.00;101447.34;5054065;28;20025;-60
2023/03/15 05:58:49;;;;;;;62.08;38.10;;;;;;;-0.67;100.00;101453.16;5054552;28;20104;-60
2023/03/15 06:01:14;;;;;;;56.88;35.75;;;;;;;-0.72;100.00;101451.91;5054312;28;20041;-61
2023/03/15 06:03:40;;;;;;;63.38;36.40;;;;;;;-0.71;100.00;101453.69;5054121;28;20089;-60
2023/03/15 06:06:05;;;;;;;55.67;34.20;;;;;;;-0.80;100.00;101457.97;5054122;28;20048;-60
2023/03/15 06:08:30;;;;;;;54.08;34.20;;;;;;;-0.78;100.00;101471.63;5054115;28;20037;-60
2023/03/15 06:10:56;;;;;;;57.00;35.00;;;;;;;-0.73;100.00;101477.09;5054014;28;20357;-60
2023/03/15 06:13:21;;;;;;;59.70;35.20;;;;;;;-0.76;100.00;101485.31;5054561;28;20108;-60
2023/03/15 06:15:46;;;;;;;59.42;36.83;;;;;;;-0.79;100.00;101485.03;5053815;28;20028;-60
2023/03/15 06:18:12;;;;;;;63.55;37.25;;;;;;;-0.74;100.00;101486.31;5054137;28;20033;-60
2023/03/15 06:20:38;;;;;;;63.45;36.05;;;;;;;-0.74;100.00;101488.84;5054547;28;20033;-60
2023/03/15 06:23:04;;;;;;;60.20;35.67;;;;;;;-0.72;100.00;101492.41;5053481;28;20391;-59
2023/03/15 06:25:29;;;;;;;65.65;36.72;;;;;;;-0.70;100.00;101490.00;5054012;28;20039;-59
2023/03/15 06:27:55;;;;;;;66.80;37.25;;;;;;;-0.68;100.00;101502.03;5053800;28;20017;-60
2023/03/15 06:30:20;;;;;;;68.97;38.33;;;;;;;-0.68;100.00;101499.50;5053587;28;20062;-59
2023/03/15 06:32:45;;;;;;;66.05;37.42;;;;;;;-0.64;100.00;101512.44;5053993;28;20461;-59
2023/03/15 06:35:11;;;;;;;68.28;38.00;;;;;;;-0.59;100.00;101518.78;5053488;28;20531;-60
2023/03/15 06:37:36;;;;;;;71.53;40.53;;;;;;;-0.51;100.00;101525.34;5053591;28;20036;-59
2023/03/15 06:40:07;;;;;;;73.65;42.40;;;;;;;-0.43;100.00;101529.41;5053435;28;20027;-59
2023/03/15 06:42:33;;;;;;;74.93;41.17;;;;;;;-0.31;100.00;101531.22;5053653;28;20546;-59
2023/03/15 06:44:58;;;;;;;77.32;45.58;;;;;;;-0.20;100.00;101526.28;5053212;28;20029;-59
2023/03/15 06:47:24;;;;;;;83.53;45.42;;;;;;;-0.11;100.00;101531.25;5053718;28;20063;-60
2023/03/15 06:49:49;;;;;;;80.18;45.75;;;;;;;0.01;100.00;101533.91;5053651;28;20017;-60
2023/03/15 06:52:15;;;;;;;76.03;44.15;;;;;;;0.09;100.00;101544.69;5052650;28;20036;-59
2023/03/15 06:54:41;;;;;;;77.90;43.75;;;;;;;0.13;100.00;101549.25;5053530;28;20485;-59
2023/03/15 06:57:06;;;;;;;69.20;41.13;;;;;;;0.14;100.00;101551.03;5053523;28;20048;-60
2023/03/15 06:59:31;;;;;;;73.05;40.90;;;;;;;0.16;100.00;101559.66;5052963;28;20032;-60
2023/03/15 07:01:57;;;;;;;64.20;39.83;;;;;;;0.10;100.00;101557.47;5053233;28;20075;-60
2023/03/15 07:04:22;;;;;;;65.28;38.25;;;;;;;0.11;100.00;101560.91;5053779;28;20100;-60
2023/03/15 07:06:47;;;;;;;57.58;37.10;;;;;;;0.16;100.00;101567.25;5052454;28;20036;-60
2023/03/15 07:09:13;;;;;;;61.33;37.22;;;;;;;0.11;100.00;101571.06;5053058;28;20037;-60
2023/03/15 07:11:38;;;;;;;62.50;37.90;;;;;;;0.15;100.00;101575.63;5052612;28;20067;-60
2023/03/15 07:14:03;;;;;;;71.25;39.83;;;;;;;0.30;100.00;101587.03;5052429;28;20032;-60
2023/03/15 07:16:28;;;;;;;68.00;40.17;;;;;;;0.37;100.00;101592.63;5053421;28;20021;-60
2023/03/15 07:18:55;;;;;;;67.78;42.22;;;;;;;0.45;100.00;101596.66;5052406;28;20025;-60
2023/03/15 07:21:20;;;;;;;75.72;42.05;;;;;;;0.59;100.00;101596.13;5052868;28;20039;-60
2023/03/15 07:23:46;;;;;;;68.07;41.92;;;;;;;0.61;100.00;101603.91;5053271;28;20025;-60
2023/03/15 07:26:11;;;;;;;70.05;41.22;;;;;;;0.65;100.00;101601.72;5052353;28;20138;-60
2023/03/15 07:28:36;;;;;;;62.33;39.20;;;;;;;0.70;100.00;101609.72;5052742;28;20027;-59
2023/03/15 07:31:04;;;;;;;67.05;39.95;;;;;;;0.84;100.00;101608.31;5052940;28;20068;-60
2023/03/15 07:33:31;;;;;;;64.18;40.03;;;;;;;0.88;100.00;101615.41;5052471;28;20491;-59
2023/03/15 07:35:57;;;;;;;66.00;40.57;;;;;;;0.91;100.00;101609.69;5052514;28;20025;-60
2023/03/15 07:38:25;;;;;;;59.10;38.05;;;;;;;0.89;100.00;101617.19;5053147;28;20040;-60
2023/03/15 07:40:50;;;;;;;58.72;37.90;;;;;;;0.93;100.00;101624.28;5052253;28;20032;-60
2023/03/15 07:43:16;;;;;;;63.60;38.13;;;;;;;0.93;100.00;101624.28;5052537;28;20071;-60
2023/03/15 07:45:43;;;;;;;60.05;37.70;;;;;;;0.95;100.00;101626.94;5053273;28;20047;-60
2023/03/15 07:48:08;;;;;;;60.72;38.67;;;;;;;1.00;100.00;101628.19;5051914;28;20028;-60
2023/03/15 07:50:34;;;;;;;67.35;38.63;;;;;;;1.13;100.00;101630.94;5052717;28;20028;-60
2023/03/15 07:52:59;;;;;;;65.20;38.78;;;;;;;1.20;100.00;101639.06;5052107;28;20064;-60
2023/03/15 07:55:25;;;;;;;60.05;38.45;;;;;;;1.23;100.00;101641.84;5052093;28;20025;-60
2023/03/15 07:57:51;;;;;;;60.45;39.10;;;;;;;1.35;100.00;101645.34;5052976;28;20021;-60
2023/03/15 08:00:17;;;;;;;51.92;34.47;;;;;;;1.49;100.00;101646.47;5052182;28;20495;-60
2023/03/15 08:02:42;;;;;;;51.03;31.48;;;;;;;1.47;100.00;101647.97;5052051;28;20559;-60
2023/03/15 08:05:08;;;;;;;36.20;24.52;;;;;;;1.58;100.00;101654.81;5052354;28;20082;-60
2023/03/15 08:07:35;;;;;;;34.25;23.33;;;;;;;1.62;100.00;101655.94;5052299;28;20057;-60
2023/03/15 08:10:01;;;;;;;35.70;24.40;;;;;;;1.75;100.00;101673.91;5051450;28;20032;-60
2023/03/15 08:12:27;;;;;;;39.95;24.05;;;;;;;1.83;100.00;101681.25;5052424;28;20445;-60
2023/03/15 08:14:52;;;;;;;31.58;21.50;;;;;;;1.87;100.00;101681.59;5052448;28;20504;-60
2023/03/15 08:17:17;;;;;;;29.20;19.45;;;;;;;2.03;100.00;101682.78;5051390;28;20028;-60
2023/03/15 08:19:43;;;;;;;33.42;19.85;;;;;;;2.07;100.00;101689.91;5052493;28;20556;-60
2023/03/15 08:22:09;;;;;;;31.48;17.65;;;;;;;2.12;100.00;101691.16;5053625;28;20028;-63
2023/03/15 08:24:35;;;;;;;27.92;16.00;;;;;;;2.18;100.00;101694.16;5056336;28;20025;-61
2023/03/15 08:27:00;;;;;;;25.73;15.40;;;;;;;2.32;100.00;101699.44;5056054;28;20384;-61
2023/03/15 08:29:26;;;;;;;25.83;14.05;;;;;;;2.44;100.00;101697.81;5056063;28;20036;-62
2023/03/15 08:31:52;;;;;;;21.30;12.80;;;;;;;2.56;100.00;101696.22;5056259;28;20021;-61
2023/03/15 08:34:17;;;;;;;20.35;10.40;;;;;;;2.59;100.00;101703.19;5056128;28;20032;-61
2023/03/15 08:36:45;;;;;;;21.98;10.32;;;;;;;2.68;100.00;101708.09;5055736;28;20025;-61
2023/03/15 08:39:10;;;;;;;;;;;;;;;2.87;100.00;101713.78;5056067;28;20031;-61
2023/03/15 08:41:36;;;;;;;23.77;11.20;;;;;;;2.71;100.00;101716.84;5056158;28;20351;-60
2023/03/15 08:44:01;;;;;;;21.08;10.80;;;;;;;2.72;100.00;101710.09;5055472;28;20284;-61
2023/03/15 08:46:27;;;;;;;22.30;11.27;;;;;;;2.79;100.00;101710.66;5056169;28;20075;-61
2023/03/15 08:48:52;;;;;;;25.48;11.70;;;;;;;2.89;100.00;101713.88;5056047;28;20021;-61
2023/03/15 08:51:18;;;;;;;20.08;10.68;;;;;;;2.98;100.00;101722.22;5055199;28;20482;-61
2023/03/15 08:53:44;;;;;;;16.92;8.90;;;;;;;3.04;100.00;101729.44;5055711;28;20439;-61
2023/03/15 08:56:09;;;;;;;20.13;9.23;;;;;;;3.12;100.00;101731.78;5055804;28;20576;-61
2023/03/15 08:58:35;;;;;;;22.90;9.40;;;;;;;3.21;100.00;101729.00;5055149;28;20025;-61
2023/03/15 09:01:00;;;;;;;18.70;10.52;;;;;;;3.46;100.00;101733.38;5055537;28;20039;-61
2023/03/15 09:03:26;;;;;;;21.45;8.05;;;;;;;3.62;100.00;101733.69;5055831;28;20025;-60
2023/03/15 09:05:55;;;;;;;23.73;8.30;;;;;;;3.66;100.00;101736.47;5055157;28;20052;-59
2023/03/15 09:08:20;;;;;;;21.25;7.35;;;;;;;3.71;100.00;101740.22;5055481;28;20037;-61
2023/03/15 09:11:10;;;;;;;28.83;9.38;;;;;;;3.82;100.00;101739.31;5016978;28;20204;-60
2023/03/15 09:13:35;;;;;;;23.40;8.90;;;;;;;4.08;100.00;101742.81;5055050;28;20171;-61
2023/03/15 09:16:02;;;;;;;19.23;7.68;;;;;;;4.35;100.00;101737.88;5055302;28;20021;-61
2023/03/15 09:18:27;;;;;;;20.23;7.87;;;;;;;4.49;100.00;101747.38;5055015;28;20031;-61
2023/03/15 09:20:52;;;;;;;17.25;6.82;;;;;;;4.95;100.00;101739.41;5055301;28;20287;-61
2023/03/15 09:23:18;;;;;;;18.55;6.18;;;;;;;5.06;100.00;101737.53;5055323;28;20364;-61
2023/03/15 09:25:43;;;;;;;20.23;7.35;;;;;;;5.16;100.00;101739.91;5055015;28;20059;-61
2023/03/15 09:28:10;;;;;;;20.15;7.10;;;;;;;5.04;100.00;101739.13;5054944;28;20388;-61
2023/03/15 09:30:37;;;;;;;20.20;6.93;;;;;;;5.37;100.00;101739.56;5055376;28;20083;-61
2023/03/15 09:33:03;;;;;;;21.05;7.03;;;;;;;5.41;99.52;101746.63;5053380;28;20021;-61
2023/03/15 09:35:28;;;;;;;22.17;6.38;;;;;;;5.79;96.47;101750.78;5054961;28;20029;-61
2023/03/15 09:37:54;;;;;;;18.05;5.25;;;;;;;6.17;91.42;101743.75;5055179;28;20017;-61
2023/03/15 09:40:31;;;;;;;20.02;6.07;;;;;;;6.20;91.01;101739.72;5054627;28;20029;-61
2023/03/15 09:43:05;;;;;;;14.20;6.30;;;;;;;6.65;88.63;101752.69;5054713;28;20029;-61
2023/03/15 09:45:39;;;;;;;17.50;6.40;;;;;;;7.21;88.72;101740.56;5055046;28;20108;-61
2023/03/15 09:48:18;;;;;;;20.90;4.70;;;;;;;7.49;82.30;101745.56;5053905;28;20528;-61
2023/03/15 09:50:55;;;;;;;14.80;4.00;;;;;;;7.62;78.34;101751.38;5055181;28;20037;-61
2023/03/15 09:53:32;;;;;;;15.93;4.40;;;;;;;8.17;79.54;101749.31;5054951;28;20027;-61
2023/03/15 09:55:58;;;;;;;19.33;4.47;;;;;;;8.15;75.59;101743.19;5054399;28;20107;-61
2023/03/15 09:58:31;;;;;;;17.42;4.25;;;;;;;8.54;71.31;101748.72;5054963;28;20465;-61
2023/03/15 10:01:02;;;;;;;15.00;3.75;;;;;;;8.50;69.23;101743.34;5053798;28;20476;-61
2023/03/15 10:03:47;;;;;;;14.68;3.55;;;;;;;8.36;75.30;101747.72;5054641;28;20431;-61
2023/03/15 10:06:28;;;;;;;17.33;3.92;;;;;;;8.04;75.93;101752.00;5054288;28;20517;-61
2023/03/15 10:09:10;;;;;;;18.40;3.63;;;;;;;7.66;77.54;101749.09;5053730;28;20043;-61
2023/03/15 10:12:01;;;;;;;13.82;4.38;;;;;;;8.48;73.89;101753.53;5054548;28;20419;-61
2023/03/15 10:14:39;;;;;;;16.65;3.17;;;;;;;9.62;68.98;101744.59;5054510;28;20159;-60
2023/03/15 10:17:11;;;;;;;16.88;3.53;;;;;;;9.29;65.70;101749.88;5053947;28;20040;-61
2023/03/15 10:19:57;;;;;;;13.23;3.13;;;;;;;8.60;63.66;101754.97;5054591;28;20036;-61
2023/03/15 10:22:39;;;;;;;20.38;3.55;;;;;;;8.19;64.49;101752.81;5054163;28;20029;-61
2023/03/15 10:25:16;;;;;;;11.60;3.35;;;;;;;7.83;65.82;101751.72;5053699;28;20491;-61
2023/03/15 10:27:57;;;;;;;14.82;3.90;;;;;;;8.02;66.27;101754.50;5054466;28;20018;-61
2023/03/15 10:30:26;;;;;;;12.63;3.25;;;;;;;9.17;61.42;101751.03;5053663;28;20039;-61
2023/03/15 10:33:14;;;;;;;11.85;3.08;;;;;;;10.33;64.54;101748.78;5054264;28;20028;-61
2023/03/15 10:35:41;;;;;;;11.75;2.88;;;;;;;11.50;60.07;101749.44;5049848;28;20040;-60
2023/03/15 10:38:19;;;;;;;11.95;2.67;;;;;;;12.07;56.13;101751.69;5053747;28;20017;-60
2023/03/15 10:40:45;;;;;;;12.50;2.55;;;;;;;12.15;48.68;101760.59;5054021;28;20029;-60
2023/03/15 10:43:34;;;;;;;12.63;2.63;;;;;;;13.10;54.34;101749.28;5053246;28;20025;-60
2023/03/15 10:46:10;;;;;;;10.45;2.20;;;;;;;13.80;46.84;101755.03;5053462;28;20091;-60
2023/03/15 10:48:38;;;;;;;8.88;2.55;;;;;;;14.16;43.43;101757.00;5054008;28;20025;-60
2023/03/15 10:51:05;;;;;;;;;;;;;;;14.99;53.54;101752.38;5053285;28;20043;-60
2023/03/15 10:53:30;;;;;;;11.38;2.22;;;;;;;14.19;44.38;101761.38;5053874;28;19920;-60
2023/03/15 10:55:59;;;;;;;11.25;2.70;;;;;;;14.31;44.97;101768.63;5053373;28;20013;-60
2023/03/15 10:58:29;;;;;;;8.77;2.65;;;;;;;14.25;40.63;101765.84;5052914;28;20552;-60
2023/03/15 11:01:06;;;;;;;10.95;2.40;;;;;;;14.62;41.03;101764.31;5053127;28;20400;-60
2023/03/15 11:03:32;;;;;;;7.18;2.22;;;;;;;14.37;39.93;101776.59;5053809;28;20035;-60
2023/03/15 11:05:58;;;;;;;11.27;2.65;;;;;;;15.10;37.37;101783.78;5052390;28;20532;-61
2023/03/15 11:08:38;;;;;;;10.85;2.20;;;;;;;14.65;39.60;101777.41;5053463;28;20064;-60
2023/03/15 11:11:05;;;;;;;10.07;2.33;;;;;;;15.36;38.48;101779.25;5052446;28;20028;-60
2023/03/15 11:13:33;;;;;;;10.48;2.35;;;;;;;16.17;39.18;101787.22;5053471;28;20036;-61